Time;durP1;ratioP1;P1;durP2;ratioP2;P2;SDS_P1;SDS_P2;PMS_P1;PMS_P2;Temp;Humidity;BMP_temperature;BMP_pressure;BME280_temperature;BME280_humidity;BME280_pressure;Samples;Min_cycle;Max_cycle;Signal;HPM_P1;HPM_P2
2022/11/24 00:01:31;;;;;;;65.43;33.63;;;2.60;99.90;;;2.55;100.00;100258.94;5042734;28;20189;-81
2022/11/24 00:04:03;;;;;;;59.22;30.20;;;2.60;99.90;;;2.68;100.00;100261.09;5043692;28;20218;-81
2022/11/24 00:06:36;;;;;;;60.97;30.92;;;2.60;99.90;;;2.56;100.00;100260.63;5041592;28;20218;-81
2022/11/24 00:09:06;;;;;;;48.17;28.15;;;2.60;99.90;;;2.43;100.00;100261.09;5033705;28;20194;-81
2022/11/24 00:11:37;;;;;;;54.50;33.38;;;2.50;99.90;;;2.60;100.00;100261.97;5013310;28;20476;-82
2022/11/24 00:14:07;;;;;;;57.13;30.65;;;2.60;99.90;;;2.60;100.00;100253.94;5002418;28;20197;-81
2022/11/24 00:16:38;;;;;;;65.40;30.20;;;2.60;99.90;;;2.46;100.00;100258.13;5027266;28;20182;-80
2022/11/24 00:19:09;;;;;;;62.40;28.55;;;2.50;99.90;;;2.42;100.00;100258.59;5043267;28;20228;-81
2022/11/24 00:21:44;;;;;;;67.50;33.38;;;2.50;99.90;;;2.66;100.00;100260.47;5025501;28;20215;-82
2022/11/24 00:24:19;;;;;;;67.93;35.38;;;2.60;99.90;;;2.73;100.00;100262.28;5026417;28;20202;-79
2022/11/24 00:26:50;;;;;;;52.55;32.10;;;2.70;99.90;;;2.75;100.00;100262.13;5028007;28;20226;-80
2022/11/24 00:29:19;;;;;;;58.25;30.33;;;2.70;99.90;;;2.60;100.00;100264.63;5019834;28;20186;-79
2022/11/24 00:31:49;;;;;;;59.20;30.60;;;2.70;99.90;;;2.72;100.00;100267.78;5017689;28;20473;-80
2022/11/24 00:34:18;;;;;;;52.03;27.65;;;2.70;99.90;;;2.73;100.00;100262.28;5032939;28;20194;-79
2022/11/24 00:36:47;;;;;;;57.30;31.05;;;2.70;99.90;;;2.60;100.00;100264.63;5043664;28;20172;-80
2022/11/24 00:39:17;;;;;;;60.00;27.73;;;2.70;99.90;;;2.49;100.00;100262.28;5041926;28;20196;-80
2022/11/24 00:41:46;;;;;;;68.47;30.92;;;2.60;99.90;;;2.60;100.00;100269.97;5011350;28;20256;-82
2022/11/24 00:44:15;;;;;;;61.20;32.92;;;2.60;99.90;;;2.63;100.00;100266.97;5034999;28;20217;-80
2022/11/24 00:46:44;;;;;;;57.70;29.90;;;2.60;99.90;;;2.57;100.00;100259.59;5037685;28;20213;-80
2022/11/24 00:49:14;;;;;;;55.38;32.88;;;2.60;99.90;;;2.45;100.00;100255.59;5031986;28;20661;-79
2022/11/24 00:51:45;;;;;;;52.00;29.45;;;2.50;99.90;;;2.64;100.00;100260.63;5019245;28;20213;-80
2022/11/24 00:54:17;;;;;;;62.58;30.45;;;2.60;99.90;;;2.52;100.00;100267.28;4991589;28;20222;-80
2022/11/24 00:56:46;;;;;;;84.40;33.78;;;2.60;99.90;;;2.52;100.00;100261.94;5000711;28;20515;-81
2022/11/24 00:59:15;;;;;;;76.35;31.80;;;2.50;99.90;;;2.44;100.00;100260.09;5016535;28;20265;-80
2022/11/24 01:01:44;;;;;;;74.32;33.17;;;2.50;99.90;;;2.52;100.00;100254.75;5001424;28;20191;-79
2022/11/24 01:04:19;;;;;;;52.50;28.90;;;2.50;99.90;;;2.61;100.00;100255.63;5006336;28;20317;-80
2022/11/24 01:06:51;;;;;;;70.60;32.70;;;2.60;99.90;;;2.65;100.00;100259.63;5021324;28;20213;-79
2022/11/24 01:09:24;;;;;;;84.57;36.08;;;2.60;99.90;;;2.68;100.00;100253.94;5038421;28;20194;-80
2022/11/24 01:12:02;;;;;;;60.28;30.88;;;2.60;99.90;;;2.52;100.00;100253.91;5039606;28;20186;-81
2022/11/24 01:14:33;;;;;;;56.10;31.33;;;2.50;99.90;;;2.43;100.00;100255.75;5023829;28;20181;-81
2022/11/24 01:17:03;;;;;;;54.28;29.60;;;2.50;99.90;;;2.57;100.00;100265.78;5024117;28;20218;-80
2022/11/24 01:19:33;;;;;;;58.45;29.98;;;2.50;99.90;;;2.56;100.00;100274.81;5041842;28;20181;-79
2022/11/24 01:22:02;;;;;;;58.53;30.73;;;2.60;99.90;;;2.63;100.00;100267.78;5040211;28;20209;-80
2022/11/24 01:24:31;;;;;;;63.83;34.05;;;2.60;99.90;;;2.64;100.00;100271.31;4988526;28;20661;-80
2022/11/24 01:27:00;;;;;;;58.05;28.90;;;2.60;99.90;;;2.82;100.00;100274.63;5026277;28;20218;-79
2022/11/24 01:29:29;;;;;;;64.70;35.05;;;2.70;99.90;;;2.72;100.00;100279.31;5036465;28;20198;-80
2022/11/24 01:31:58;;;;;;;66.90;32.40;;;2.70;99.90;;;2.75;100.00;100281.66;5040640;28;20217;-81
2022/11/24 01:34:27;;;;;;;57.00;33.33;;;2.70;99.90;;;2.77;100.00;100282.31;5048250;28;20204;-82
2022/11/24 01:36:57;;;;;;;53.35;32.40;;;2.70;99.90;;;2.93;100.00;100271.63;5047787;28;20181;-81
2022/11/24 01:39:28;;;;;;;53.42;32.45;;;2.80;99.90;;;2.63;100.00;100264.28;5029940;28;20774;-79
2022/11/24 01:42:00;;;;;;;53.70;29.38;;;2.80;99.90;;;2.49;100.00;100267.63;5029533;28;20268;-79
2022/11/24 01:44:31;;;;;;;67.50;30.88;;;2.60;99.90;;;2.54;100.00;100260.78;5046290;28;20197;-79
2022/11/24 01:47:19;;;;;;;64.03;29.92;;;2.60;99.90;;;2.54;100.00;100257.28;5028139;28;20260;-80
2022/11/24 01:49:54;;;;;;;49.75;31.92;;;2.60;99.90;;;2.44;100.00;100262.78;5028312;28;20180;-80
2022/11/24 01:52:31;;;;;;;71.85;31.08;;;2.50;99.90;;;2.52;100.00;100273.44;5030379;28;20263;-80
2022/11/24 01:55:06;;;;;;;58.58;29.77;;;2.50;99.90;;;2.44;100.00;100275.28;5036633;28;20197;-79
2022/11/24 01:57:43;;;;;;;48.17;26.13;;;2.50;99.90;;;2.43;100.00;100277.13;5023102;28;20549;-79
2022/11/24 02:00:15;;;;;;;65.65;31.70;;;2.50;99.90;;;2.47;100.00;100285.66;5008518;28;20210;-81
2022/11/24 02:02:45;;;;;;;55.33;30.90;;;2.50;99.90;;;2.54;100.00;100302.69;4985107;28;20218;-80
2022/11/24 02:05:21;;;;;;;44.83;24.77;;;2.50;99.90;;;2.53;100.00;100296.50;5014049;28;20206;-79
2022/11/24 02:07:55;;;;;;;57.65;28.08;;;2.60;99.90;;;2.51;100.00;100295.84;5014736;28;20213;-79
2022/11/24 02:10:25;;;;;;;57.00;29.52;;;2.50;99.90;;;2.70;100.00;100297.34;5030703;28;20190;-80
2022/11/24 02:12:59;;;;;;;58.88;32.70;;;2.60;99.90;;;2.68;100.00;100303.84;5112215;22;20244;-73
2022/11/24 02:15:29;;;;;;;58.47;31.15;;;2.60;99.90;;;2.67;100.00;100303.00;5055986;28;20192;-75
2022/11/24 02:17:59;;;;;;;58.75;31.60;;;2.70;99.90;;;2.86;100.00;100304.53;5055855;28;20173;-73
2022/11/24 02:20:28;;;;;;;62.80;28.80;;;2.80;99.90;;;2.75;100.00;100300.38;5055977;28;20189;-74
2022/11/24 02:23:10;;;;;;;54.97;28.27;;;2.80;99.90;;;2.75;100.00;100300.38;5056154;28;20177;-74
2022/11/24 02:25:56;;;;;;;62.05;29.13;;;2.70;99.90;;;2.76;100.00;100312.69;5037648;28;20391;-73
2022/11/24 02:28:32;;;;;;;50.22;25.08;;;2.70;99.90;;;2.89;100.00;100307.72;5069182;23;20224;-80
2022/11/24 02:31:05;;;;;;;52.50;27.75;;;2.90;99.90;;;2.85;100.00;100306.38;5043851;28;20211;-81
2022/11/24 02:33:37;;;;;;;64.32;31.30;;;2.80;99.90;;;2.84;100.00;100299.38;5033105;28;20186;-81
2022/11/24 02:36:09;;;;;;;53.45;30.40;;;2.80;99.90;;;2.77;100.00;100295.69;5028804;28;20196;-80
2022/11/24 02:38:39;;;;;;;50.70;30.02;;;2.80;99.90;;;2.84;100.00;100312.72;5025430;28;20228;-79
2022/11/24 02:45:05;;;;;;;50.60;27.10;;;2.80;99.90;;;2.69;100.00;100311.72;5043455;28;20205;-80
2022/11/24 02:47:36;;;;;;;42.38;25.08;;;2.80;99.90;;;2.49;100.00;100319.19;5047646;28;20217;-80
2022/11/24 02:50:08;;;;;;;65.07;28.58;;;2.60;99.90;;;2.53;100.00;100311.69;5043346;28;20705;-79
2022/11/24 02:52:38;;;;;;;50.55;26.40;;;2.60;99.90;;;2.50;100.00;100317.38;5040846;28;20227;-80
2022/11/24 02:55:10;;;;;;;44.55;24.98;;;2.50;99.90;;;2.45;100.00;100314.34;5016566;28;20742;-80
2022/11/24 02:57:40;;;;;;;50.75;26.23;;;2.50;99.90;;;2.59;100.00;100317.22;5026931;28;20225;-80
2022/11/24 03:00:14;;;;;;;57.50;25.77;;;2.60;99.90;;;2.49;100.00;100313.00;5020155;28;20576;-79
2022/11/24 03:02:44;;;;;;;56.72;27.58;;;2.60;99.90;;;2.44;100.00;100296.66;5039071;28;20197;-80
2022/11/24 03:05:18;;;;;;;49.20;27.13;;;2.50;99.90;;;2.51;100.00;100301.19;5022172;28;20707;-81
2022/11/24 03:07:49;;;;;;;48.53;27.42;;;2.50;99.90;;;2.47;100.00;100297.16;5039092;28;20217;-80
2022/11/24 03:10:19;;;;;;;48.42;26.55;;;2.50;99.90;;;2.47;100.00;100297.16;5033176;28;20194;-78
2022/11/24 03:12:50;;;;;;;45.72;24.75;;;2.50;99.90;;;2.37;100.00;100290.31;5040296;28;20219;-81
2022/11/24 03:15:23;;;;;;;53.45;25.98;;;2.50;99.90;;;2.15;100.00;100297.09;5010683;28;20577;-80
2022/11/24 03:17:56;;;;;;;51.22;25.95;;;2.30;99.90;;;2.34;100.00;100306.63;5001883;28;20245;-80
2022/11/24 03:20:30;;;;;;;41.65;25.00;;;2.30;99.90;;;2.38;100.00;100313.31;5032699;28;20638;-79
2022/11/24 03:23:01;;;;;;;52.13;26.35;;;2.40;99.90;;;2.34;100.00;100314.66;5043362;28;20231;-81
2022/11/24 03:25:31;;;;;;;48.70;26.80;;;2.40;99.90;;;2.30;100.00;100321.31;5024244;28;20190;-80
2022/11/24 03:28:01;;;;;;;50.38;24.48;;;2.40;99.90;;;2.25;100.00;100319.13;5020567;28;20221;-79
2022/11/24 03:30:33;;;;;;;53.88;26.98;;;2.30;99.90;;;2.41;100.00;100315.69;5033234;28;20197;-79
2022/11/24 03:33:06;;;;;;;58.33;27.05;;;2.40;99.90;;;2.45;100.00;100319.69;5028829;28;20201;-81
2022/11/24 03:35:37;;;;;;;57.17;28.02;;;2.40;99.90;;;2.40;100.00;100343.38;5026270;28;20222;-79
2022/11/24 03:38:07;;;;;;;53.40;25.00;;;2.40;99.90;;;2.32;100.00;100340.69;5036139;28;20217;-80
2022/11/24 03:40:38;;;;;;;59.47;27.50;;;2.40;99.90;;;2.30;100.00;100332.84;5016662;28;20193;-79
2022/11/24 03:43:08;;;;;;;49.08;25.80;;;2.40;99.90;;;2.44;100.00;100334.88;5039117;28;20193;-79
2022/11/24 03:45:40;;;;;;;50.85;26.42;;;2.40;99.90;;;2.42;100.00;100346.72;5040057;28;20680;-81
2022/11/24 03:48:16;;;;;;;43.03;23.75;;;2.40;99.90;;;2.57;100.00;100331.72;5040201;28;20205;-79
2022/11/24 03:50:56;;;;;;;38.15;22.15;;;2.40;99.90;;;2.64;100.00;100332.75;5028978;28;20221;-80
2022/11/24 03:53:28;;;;;;;44.25;22.73;;;2.50;99.90;;;2.50;100.00;100338.72;5026824;28;20182;-80
2022/11/24 03:56:00;;;;;;;47.80;24.23;;;2.50;99.90;;;2.48;100.00;100330.88;5021454;28;20257;-81
2022/11/24 03:58:32;;;;;;;64.32;28.58;;;2.50;99.90;;;2.32;100.00;100335.34;5021553;28;20232;-78
2022/11/24 04:01:04;;;;;;;51.05;23.85;;;2.40;99.90;;;2.17;100.00;100343.16;5039548;28;20193;-79
2022/11/24 04:03:35;;;;;;;57.92;27.30;;;2.30;99.90;;;2.25;100.00;100345.00;5042894;28;20233;-80
2022/11/24 04:06:06;;;;;;;47.95;23.15;;;2.30;99.90;;;2.24;100.00;100351.31;5012771;28;20233;-79
2022/11/24 04:08:36;;;;;;;52.30;25.95;;;2.30;99.90;;;2.11;100.00;100359.81;5029081;28;20198;-78
2022/11/24 04:11:07;;;;;;;41.35;21.45;;;2.20;99.90;;;2.22;100.00;100362.19;5030109;28;20197;-80
2022/11/24 04:13:39;;;;;;;46.60;22.67;;;2.20;99.90;;;2.11;100.00;100365.13;5047376;28;20202;-78
2022/11/24 04:16:10;;;;;;;48.30;24.23;;;2.20;99.90;;;2.21;100.00;100359.66;5048871;28;20181;-80
2022/11/24 04:18:42;;;;;;;41.58;22.85;;;2.20;99.90;;;2.22;100.00;100362.19;5043032;28;20223;-78
2022/11/24 04:21:16;;;;;;;41.00;23.17;;;2.20;99.90;;;2.27;100.00;100353.69;5022138;28;20229;-80
2022/11/24 04:23:49;;;;;;;46.15;23.02;;;2.20;99.90;;;2.16;100.00;100358.31;5037875;28;20201;-82
2022/11/24 04:26:26;;;;;;;50.47;26.02;;;2.20;99.90;;;2.07;100.00;100356.63;5002963;28;20693;-79
2022/11/24 04:28:57;;;;;;;47.33;26.35;;;2.10;99.90;;;2.05;100.00;100361.28;5034341;28;20716;-78
2022/11/24 04:31:29;;;;;;;58.08;25.50;;;2.20;99.90;;;2.12;100.00;100356.97;5043385;28;20198;-79
2022/11/24 04:34:01;;;;;;;60.80;23.95;;;2.10;99.90;;;2.14;100.00;100354.13;5018504;28;20190;-79
2022/11/24 04:36:32;;;;;;;47.38;24.92;;;2.20;99.90;;;2.16;100.00;100358.31;5050757;28;20200;-79
2022/11/24 04:39:04;;;;;;;45.88;22.40;;;2.20;99.90;;;2.06;100.00;100349.59;5031887;28;20186;-79
2022/11/24 04:41:54;;;;;;;53.30;23.38;;;2.10;99.90;;;2.10;100.00;100348.28;5035463;28;20185;-78
2022/11/24 04:44:28;;;;;;;61.67;26.20;;;2.10;99.90;;;1.92;100.00;100350.22;5054141;28;20224;-79
2022/11/24 04:47:03;;;;;;;36.63;21.60;;;2.10;99.90;;;1.85;100.00;100359.84;5027727;28;20209;-79
2022/11/24 04:49:34;;;;;;;44.72;23.73;;;2.00;99.90;;;1.92;100.00;100382.22;5038587;28;20217;-79
2022/11/24 04:52:05;;;;;;;45.60;23.10;;;2.00;99.90;;;1.95;100.00;100387.25;5040018;28;20174;-79
2022/11/24 04:54:36;;;;;;;61.10;22.45;;;2.00;99.90;;;1.91;100.00;100396.56;5037527;28;20193;-80
2022/11/24 04:57:07;;;;;;;39.65;24.27;;;2.00;99.90;;;2.07;100.00;100396.66;5020544;28;20705;-79
2022/11/24 04:59:38;;;;;;;46.88;22.42;;;2.10;99.90;;;2.18;100.00;100406.19;5038547;28;20236;-80
2022/11/24 05:02:11;;;;;;;44.05;21.65;;;2.10;99.90;;;2.14;100.00;100404.84;5013778;28;20212;-79
2022/11/24 05:04:42;;;;;;;52.35;25.08;;;2.10;99.90;;;2.14;100.00;100408.34;5022003;28;20631;-79
2022/11/24 05:07:13;;;;;;;59.95;26.40;;;2.10;99.90;;;2.05;100.00;100413.81;5010901;28;20214;-78
2022/11/24 05:12:36;;;;;;;42.47;21.83;;;2.30;99.90;;;2.34;100.00;100408.94;5025597;28;20201;-78
2022/11/24 05:15:16;;;;;;;45.60;22.67;;;2.30;99.90;;;2.21;100.00;100418.41;5027582;28;20197;-79
2022/11/24 05:17:49;;;;;;;68.88;27.65;;;2.20;99.90;;;2.49;100.00;100412.66;5014765;28;20222;-79
2022/11/24 05:20:20;;;;;;;46.70;21.60;;;2.30;99.90;;;2.47;100.00;100411.19;5012523;28;20190;-80
2022/11/24 05:22:51;;;;;;;47.13;24.30;;;2.40;99.90;;;2.60;100.00;100422.22;5028752;28;20185;-78
2022/11/24 05:25:22;;;;;;;42.33;22.27;;;2.50;99.90;;;2.48;100.00;100423.50;5041090;28;20216;-78
2022/11/24 05:27:52;;;;;;;32.78;20.25;;;2.50;99.90;;;2.41;100.00;100419.81;5027750;28;20228;-79
2022/11/24 05:30:23;;;;;;;34.85;17.45;;;2.40;99.90;;;2.35;100.00;100423.97;5022766;28;20218;-81
2022/11/24 05:32:56;;;;;;;49.03;22.80;;;2.40;99.90;;;2.39;100.00;100433.31;5034426;28;20196;-79
2022/11/24 05:35:26;;;;;;;45.88;23.80;;;2.40;99.90;;;2.45;100.00;100429.19;5057447;28;20145;-79
2022/11/24 05:38:02;;;;;;;45.15;22.63;;;2.40;99.90;;;2.41;100.00;100435.84;5040079;28;20201;-79
2022/11/24 05:40:33;;;;;;;44.50;22.98;;;2.40;99.90;;;2.23;100.00;100438.59;5053320;28;20185;-79
2022/11/24 05:43:04;;;;;;;37.70;22.10;;;2.30;99.90;;;2.33;100.00;100443.81;5034632;28;20189;-79
2022/11/24 05:45:35;;;;;;;32.25;18.90;;;2.40;99.90;;;2.32;100.00;100439.47;5021276;28;20209;-79
2022/11/24 05:48:15;;;;;;;40.17;20.15;;;2.40;99.90;;;2.53;100.00;100434.53;5040485;28;20307;-79
2022/11/24 05:50:46;;;;;;;44.40;23.25;;;2.50;99.90;;;2.41;100.00;100441.19;5034725;28;20212;-79
2022/11/24 05:53:17;;;;;;;42.75;20.55;;;2.40;99.90;;;2.41;100.00;100438.53;5007207;28;20266;-81
2022/11/24 05:55:48;;;;;;;39.63;20.95;;;2.40;99.90;;;2.31;100.00;100435.13;5040605;28;20204;-79
2022/11/24 05:58:19;;;;;;;35.70;20.88;;;2.40;99.90;;;2.35;100.00;100447.16;5041814;28;20216;-80
2022/11/24 06:00:51;;;;;;;38.58;20.23;;;2.40;99.90;;;2.67;100.00;100443.75;5012425;28;20185;-81
2022/11/24 06:03:23;;;;;;;57.80;22.08;;;2.60;99.90;;;2.46;100.00;100444.22;5024652;28;20197;-79
2022/11/24 06:05:54;;;;;;;50.63;21.83;;;2.50;99.90;;;2.44;100.00;100443.53;5023796;28;20209;-79
2022/11/24 06:08:25;;;;;;;44.20;21.30;;;2.40;99.90;;;2.39;100.00;100453.84;5024634;28;20304;-79
2022/11/24 06:11:15;;;;;;;46.17;22.90;;;2.40;99.90;;;2.57;100.00;100451.91;5035448;28;20700;-78
2022/11/24 06:13:49;;;;;;;47.25;24.05;;;2.40;99.90;;;2.52;100.00;100448.88;5023948;28;20673;-79
2022/11/24 06:16:19;;;;;;;43.83;20.58;;;2.50;99.90;;;2.68;100.00;100451.63;5011956;28;20220;-80
2022/11/24 06:18:56;;;;;;;49.55;22.95;;;2.60;99.90;;;2.43;100.00;100466.72;5018041;28;20204;-79
2022/11/24 06:21:27;;;;;;;49.83;21.73;;;2.40;99.90;;;2.31;100.00;100478.69;5036365;28;20189;-80
2022/11/24 06:23:57;;;;;;;48.40;22.63;;;2.30;99.90;;;2.27;100.00;100476.50;5024934;28;20211;-80
2022/11/24 06:26:28;;;;;;;35.10;22.70;;;2.30;99.90;;;2.33;100.00;100483.84;5024090;28;20201;-79
2022/11/24 06:28:59;;;;;;;38.55;23.33;;;2.30;99.90;;;2.21;100.00;100487.81;5024427;28;20197;-80
2022/11/24 06:31:30;;;;;;;53.20;23.92;;;2.30;99.90;;;2.29;100.00;100498.53;5041756;28;20236;-79
2022/11/24 06:34:06;;;;;;;38.90;20.55;;;2.30;99.90;;;2.26;100.00;100497.03;5035216;28;20220;-79
2022/11/24 06:36:37;;;;;;;46.97;22.33;;;2.30;99.90;;;2.26;100.00;100501.53;5037335;28;20197;-78
2022/11/24 06:39:11;;;;;;;52.72;22.67;;;2.20;99.90;;;2.06;100.00;100501.75;5055665;28;20189;-80
2022/11/24 06:41:41;;;;;;;31.65;18.95;;;2.10;99.90;;;1.94;100.00;100497.63;5046798;28;20188;-78
2022/11/24 06:44:12;;;;;;;47.80;22.30;;;2.00;99.90;;;1.90;100.00;100498.94;5038396;28;20193;-78
2022/11/24 06:46:42;;;;;;;37.75;20.15;;;2.00;99.90;;;2.00;100.00;100505.03;5050175;28;20244;-80
2022/11/24 06:49:14;;;;;;;37.53;21.17;;;2.00;99.90;;;1.93;100.00;100501.31;5027439;28;20216;-79
2022/11/24 06:51:45;;;;;;;41.25;22.45;;;2.00;99.90;;;1.98;100.00;100508.84;5045210;28;20200;-80
2022/11/24 06:54:21;;;;;;;55.03;24.02;;;2.00;99.90;;;1.91;100.00;100503.28;5040615;28;20198;-79
2022/11/24 06:56:57;;;;;;;40.75;21.98;;;2.00;99.90;;;2.01;100.00;100498.69;5022166;28;20213;-79
2022/11/24 06:59:28;;;;;;;45.47;22.13;;;2.00;99.90;;;2.04;100.00;100506.38;5012463;28;20208;-79
2022/11/24 07:01:59;;;;;;;34.22;19.55;;;2.00;99.90;;;1.94;100.00;100510.97;5051237;28;20224;-79
2022/11/24 07:04:32;;;;;;;45.28;22.50;;;2.00;99.90;;;1.95;100.00;100507.31;5030467;28;20216;-80
2022/11/24 07:07:04;;;;;;;38.08;19.77;;;2.00;99.90;;;1.96;100.00;100508.16;5043049;28;20301;-79
2022/11/24 07:09:37;;;;;;;42.35;20.75;;;2.10;99.90;;;2.01;100.00;100513.88;5044816;28;20213;-80
2022/11/24 07:12:08;;;;;;;37.10;21.75;;;2.00;99.90;;;2.10;100.00;100513.78;5027640;28;20193;-79
2022/11/24 07:14:42;;;;;;;33.65;17.67;;;2.10;99.90;;;2.08;100.00;100518.41;5037980;28;20201;-79
2022/11/24 07:17:13;;;;;;;39.58;20.65;;;2.10;99.90;;;2.16;100.00;100523.81;5037769;28;20217;-80
2022/11/24 07:19:45;;;;;;;35.47;17.98;;;2.10;99.90;;;2.15;100.00;100524.81;5027569;28;20190;-81
2022/11/24 07:22:16;;;;;;;38.63;20.35;;;2.10;99.90;;;2.05;100.00;100526.75;5024667;28;20607;-81
2022/11/24 07:24:47;;;;;;;43.42;21.23;;;2.10;99.90;;;2.08;100.00;100530.94;5006154;28;20569;-79
2022/11/24 07:27:18;;;;;;;32.42;17.27;;;2.10;99.90;;;2.12;100.00;100527.81;5016886;28;20229;-80
2022/11/24 07:29:48;;;;;;;41.40;21.00;;;2.10;99.90;;;2.28;100.00;100527.06;5025413;28;20208;-80
2022/11/24 07:32:20;;;;;;;42.90;19.55;;;2.10;99.90;;;2.29;100.00;100535.91;5030405;28;20635;-80
2022/11/24 07:34:52;;;;;;;40.80;21.55;;;2.20;99.90;;;2.24;100.00;100535.53;5040073;28;20221;-81
2022/11/24 07:37:22;;;;;;;45.60;18.50;;;2.20;99.90;;;2.27;100.00;100544.09;5042159;28;20205;-80
2022/11/24 07:39:59;;;;;;;41.72;21.30;;;2.20;99.90;;;2.47;100.00;100547.38;5036532;28;20189;-79
2022/11/24 07:42:29;;;;;;;49.42;20.20;;;2.30;99.90;;;2.45;100.00;100549.38;5039893;28;20308;-80
2022/11/24 07:45:00;;;;;;;47.67;21.27;;;2.40;99.90;;;2.49;100.00;100554.22;5036335;28;20189;-80
2022/11/24 07:47:30;;;;;;;52.47;23.63;;;2.40;99.90;;;2.43;100.00;100554.00;5022982;28;20221;-80
2022/11/24 07:50:02;;;;;;;46.45;20.70;;;2.40;99.90;;;2.54;100.00;100553.75;5034342;28;20206;-81
2022/11/24 07:52:33;;;;;;;48.30;20.77;;;2.40;99.90;;;2.53;100.00;100552.91;5018364;28;20217;-80
2022/11/24 07:55:05;;;;;;;33.13;21.38;;;2.50;99.90;;;2.57;100.00;100558.75;5036951;28;20220;-80
2022/11/24 07:57:36;;;;;;;51.15;24.27;;;2.50;99.90;;;2.52;100.00;100561.06;5035974;28;20221;-80
2022/11/24 08:00:08;;;;;;;47.22;22.92;;;2.50;99.90;;;2.57;100.00;100554.25;5021205;28;20638;-80
2022/11/24 08:02:38;;;;;;;33.00;19.90;;;2.50;99.90;;;2.60;100.00;100550.44;5022868;28;20209;-80
2022/11/24 08:05:10;;;;;;;35.58;21.92;;;2.60;99.90;;;2.72;100.00;100556.34;5040814;28;20245;-80
2022/11/24 08:07:43;;;;;;;35.90;20.38;;;2.60;99.90;;;2.57;100.00;100553.41;5040707;28;20239;-81
2022/11/24 08:10:14;;;;;;;42.92;22.50;;;2.50;99.90;;;2.53;100.00;100552.06;5038632;28;20568;-80
2022/11/24 08:12:45;;;;;;;37.55;20.20;;;2.50;99.90;;;2.61;100.00;100560.16;5023996;28;20200;-81
2022/11/24 08:15:15;;;;;;;46.78;21.83;;;2.50;99.90;;;2.59;100.00;100562.13;5022710;28;20201;-81
2022/11/24 08:17:45;;;;;;;37.30;22.42;;;2.50;99.90;;;2.69;100.00;100554.00;5019449;28;20213;-81
2022/11/24 08:20:18;;;;;;;34.78;20.67;;;2.60;99.90;;;2.68;100.00;100561.16;5026591;28;20197;-81
2022/11/24 08:22:50;;;;;;;41.92;21.58;;;2.60;99.90;;;2.73;100.00;100555.34;5013323;28;20212;-80
2022/11/24 08:25:34;;;;;;;31.67;19.60;;;2.70;99.90;;;2.98;100.00;100557.97;5024427;28;20197;-81
2022/11/24 08:28:05;;;;;;;34.03;19.90;;;2.80;99.90;;;2.97;100.00;100563.47;5080261;23;20233;-74
2022/11/24 08:30:33;;;;;;;40.47;18.92;;;2.80;99.90;;;2.96;100.00;100572.47;5045079;28;20196;-74
2022/11/24 08:33:02;;;;;;;41.40;18.65;;;2.80;99.90;;;3.11;100.00;100562.00;5033246;28;20193;-75
2022/11/24 08:35:36;;;;;;;36.78;20.75;;;3.00;99.90;;;3.18;99.88;100573.75;5052752;28;20212;-74
2022/11/24 08:38:06;;;;;;;32.70;19.60;;;3.00;99.90;;;3.23;99.42;100568.75;5055618;28;20304;-73
2022/11/24 08:40:35;;;;;;;39.28;20.20;;;3.10;99.90;;;3.01;99.88;100573.66;5050694;28;20189;-72
2022/11/24 08:43:04;;;;;;;41.83;20.33;;;3.00;99.90;;;3.00;100.00;100582.69;5041572;28;20228;-74
2022/11/24 08:45:33;;;;;;;34.85;20.85;;;3.00;99.90;;;3.21;100.00;100578.75;5037581;28;20220;-72
2022/11/24 08:48:09;;;;;;;31.67;18.40;;;3.10;99.90;;;3.35;99.61;100575.44;5037888;28;20653;-75
2022/11/24 08:50:39;;;;;;;40.35;20.17;;;3.20;99.90;;;3.41;99.02;100569.44;5037408;28;20292;-74
2022/11/24 08:53:08;;;;;;;34.88;19.88;;;3.30;99.90;;;3.45;98.50;100568.13;5040904;28;20201;-76
2022/11/24 08:55:37;;;;;;;44.40;21.48;;;3.30;99.90;;;3.56;97.83;100561.63;5037643;28;20208;-74
2022/11/24 08:58:06;;;;;;;39.88;20.33;;;3.40;99.90;;;3.52;97.92;100568.31;5037219;28;20228;-75
2022/11/24 09:00:35;;;;;;;38.88;22.33;;;3.40;99.90;;;3.55;97.67;100562.63;5041978;28;20192;-74
2022/11/24 09:03:30;;;;;;;32.00;18.17;;;3.50;99.90;;;3.55;96.97;100579.50;5057434;28;20185;-76
2022/11/24 09:06:02;;;;;;;48.03;22.15;;;3.50;99.90;;;3.56;97.55;100578.53;5057257;28;20165;-75
2022/11/24 09:08:32;;;;;;;49.05;21.70;;;3.50;99.90;;;3.63;97.21;100586.72;5042746;28;20216;-73
2022/11/24 09:11:02;;;;;;;39.75;22.00;;;3.50;99.90;;;3.60;97.21;100590.56;5043416;28;20462;-73
2022/11/24 09:13:31;;;;;;;35.85;21.77;;;3.50;99.90;;;3.72;96.24;100591.09;5043107;28;20189;-73
2022/11/24 09:16:04;;;;;;;40.63;22.90;;;3.50;99.90;;;3.72;97.00;100599.13;5040811;28;20192;-75
2022/11/24 09:18:33;;;;;;;32.85;18.33;;;3.60;99.90;;;3.81;97.23;100607.00;5033641;28;20227;-75
2022/11/24 09:21:12;;;;;;;38.15;20.90;;;3.60;99.90;;;3.94;96.39;100604.66;5036492;28;20189;-73
2022/11/24 09:23:42;;;;;;;44.60;20.13;;;3.80;99.90;;;4.06;94.93;100605.19;5036545;28;20181;-74
2022/11/24 09:26:14;;;;;;;45.90;21.35;;;3.90;99.90;;;4.18;94.38;100605.66;5037155;28;20204;-74
2022/11/24 09:28:44;;;;;;;33.00;19.85;;;4.00;99.90;;;4.19;94.08;100605.50;5035961;28;20209;-74
2022/11/24 09:31:15;;;;;;;41.22;21.33;;;4.00;99.90;;;4.12;94.54;100611.69;5036471;28;20208;-74
2022/11/24 09:33:46;;;;;;;40.78;22.60;;;;;;;4.35;93.33;100607.34;5048554;28;20185;-74
2022/11/24 09:36:16;;;;;;;37.30;22.75;;;;;;;4.19;92.82;100600.13;5043753;28;20185;-74
2022/11/24 09:38:45;;;;;;;43.83;21.35;;;;;;;4.20;93.07;100603.66;5036271;28;20210;-73
2022/11/24 09:41:39;;;;;;;33.63;20.58;;;;;;;4.18;93.56;100600.31;5050585;28;20191;-74
2022/11/24 09:44:41;;;;;;;25.38;18.20;;;;;;;4.28;92.71;100609.00;5054004;28;20200;-74
2022/11/24 09:47:18;;;;;;;37.08;20.65;;;;;;;4.36;92.03;100609.00;5012639;28;20304;-74
2022/11/24 09:49:53;;;;;;;37.58;20.52;;;;;;;4.52;90.97;100627.75;5039193;28;20564;-74
2022/11/24 09:52:37;;;;;;;44.60;20.38;;;;;;;4.58;90.71;100618.19;5047361;28;20219;-74
2022/11/24 09:55:16;;;;;;;38.33;23.65;;;;;;;4.34;91.45;100624.41;5035897;28;20272;-74
2022/11/24 09:58:03;;;;;;;30.83;19.15;;;;;;;4.56;91.67;100620.19;5035993;28;20592;-72
2022/11/24 10:00:33;;;;;;;35.58;18.55;;;;;;;4.60;90.96;100635.75;5025891;28;20200;-74
2022/11/24 10:03:02;;;;;;;30.92;20.10;;;;;;;4.80;90.67;100637.06;5047172;28;20190;-74
2022/11/24 10:05:36;;;;;;;48.47;20.02;;;;;;;4.93;90.01;100619.63;5035934;28;20200;-73
2022/11/24 10:08:20;;;;;;;32.53;20.55;;;;;;;4.85;89.14;100614.25;5035591;28;20221;-74
2022/11/24 10:10:56;;;;;;;37.55;22.70;;;;;;;4.95;88.77;100612.22;5042943;28;20707;-75
2022/11/24 10:13:45;;;;;;;36.67;21.33;;;;;;;5.21;88.01;100615.47;5035536;28;20557;-73
2022/11/24 10:16:23;;;;;;;31.08;18.05;;;;;;;5.29;88.59;100628.84;5025817;28;20190;-77
2022/11/24 10:19:05;;;;;;;31.77;20.88;;;;;;;5.34;87.22;100623.81;5035492;28;20632;-75
2022/11/24 10:21:51;;;;;;;38.50;22.52;;;;;;;5.32;86.62;100620.47;5035399;28;20186;-73
2022/11/24 10:24:41;;;;;;;31.58;19.83;;;;;;;5.38;86.22;100616.22;5035615;28;20197;-74
2022/11/24 10:27:17;;;;;;;35.63;19.52;;;;;;;5.44;85.30;100627.09;5048160;28;20209;-74
2022/11/24 10:29:50;;;;;;;31.30;19.27;;;;;;;5.41;86.56;100634.69;5041688;28;20202;-75
2022/11/24 10:32:21;;;;;;;32.80;18.83;;;;;;;5.71;85.14;100643.75;5043908;28;20572;-75
2022/11/24 10:34:50;;;;;;;39.20;22.38;;;;;;;5.71;85.17;100649.13;5047279;28;20189;-74
2022/11/24 10:37:26;;;;;;;36.95;21.15;;;;;;;5.73;84.25;100641.72;5055036;28;20212;-75
2022/11/24 10:40:03;;;;;;;37.70;21.88;;;;;;;5.60;84.52;100650.34;5042390;28;20199;-77
2022/11/24 10:42:35;;;;;;;31.85;20.55;;;;;;;5.41;85.86;100648.09;5040946;28;20275;-75